Time;durP1;ratioP1;P1;durP2;ratioP2;P2;SDS_P1;SDS_P2;PMS_P1;PMS_P2;Temp;Humidity;BMP_temperature;BMP_pressure;BME280_temperature;BME280_humidity;BME280_pressure;Samples;Min_cycle;Max_cycle;Signal;HPM_P1;HPM_P2
2022/04/20 00:01:46;;;;;;;;;;;18.80;58.10;;;;;;5036328;28;843;-71
2022/04/20 00:04:11;;;;;;;;;;;18.70;58.10;;;;;;5036259;28;1290;-72
2022/04/20 00:06:37;;;;;;;;;;;18.80;58.20;;;;;;5036139;28;816;-72
2022/04/20 00:09:02;;;;;;;;;;;18.70;58.20;;;;;;5036324;28;1065;-71
2022/04/20 00:11:28;;;;;;;;;;;18.70;58.20;;;;;;5034999;28;931;-72
2022/04/20 00:13:53;;;;;;;;;;;18.70;58.20;;;;;;5036083;28;1199;-71
2022/04/20 00:16:18;;;;;;;;;;;18.70;58.20;;;;;;5035615;28;1902;-72
2022/04/20 00:18:44;;;;;;;;;;;18.80;58.20;;;;;;5036043;28;1119;-72
2022/04/20 00:21:09;;;;;;;;;;;18.70;58.20;;;;;;5035990;28;675;-71
2022/04/20 00:23:35;;;;;;;;;;;18.70;58.20;;;;;;5035920;28;1220;-71
2022/04/20 00:26:00;;;;;;;;;;;18.70;58.30;;;;;;5018293;28;784;-72
2022/04/20 00:28:26;;;;;;;;;;;18.70;58.30;;;;;;5035923;28;800;-71
2022/04/20 00:30:51;;;;;;;;;;;18.70;58.30;;;;;;5051189;28;882;-72
2022/04/20 00:33:16;;;;;;;;;;;18.70;58.30;;;;;;5035829;28;875;-71
2022/04/20 00:35:43;;;;;;;;;;;18.70;58.30;;;;;;5035426;28;1894;-71
2022/04/20 00:38:08;;;;;;;;;;;18.70;58.30;;;;;;5020532;28;1111;-72
2022/04/20 00:40:33;;;;;;;;;;;18.70;58.30;;;;;;5035738;28;958;-71
2022/04/20 00:42:59;;;;;;;;;;;18.70;58.40;;;;;;5017934;28;872;-71
2022/04/20 00:45:24;;;;;;;;;;;18.70;58.40;;;;;;5017744;28;1279;-71
2022/04/20 00:47:50;;;;;;;;;;;18.70;59.00;;;;;;5034865;28;883;-72
2022/04/20 00:50:15;;;;;;;;;;;18.70;58.50;;;;;;5017939;28;927;-71
2022/04/20 00:52:40;;;;;;;;;;;18.70;58.40;;;;;;5035470;28;946;-72
2022/04/20 00:55:06;;;;;;;;;;;18.70;58.40;;;;;;5017747;28;1201;-71
2022/04/20 00:57:32;;;;;;;;;;;18.70;58.50;;;;;;5035137;28;1961;-71
2022/04/20 00:59:59;;;;;;;;;;;18.70;58.50;;;;;;5017445;28;808;-71
2022/04/20 01:02:24;;;;;;;;;;;18.70;58.50;;;;;;5017260;28;903;-71
2022/04/20 01:04:50;;;;;;;;;;;18.70;58.50;;;;;;5035042;28;1204;-71
2022/04/20 01:07:15;;;;;;;;;;;18.70;58.50;;;;;;5033659;28;931;-71
2022/04/20 01:09:41;;;;;;;;;;;18.60;58.50;;;;;;5017638;28;1089;-71
2022/04/20 01:12:07;;;;;;;;;;;18.70;58.50;;;;;;5035045;28;1006;-71
2022/04/20 01:14:32;;;;;;;;;;;18.70;58.60;;;;;;5035556;28;1184;-71
2022/04/20 01:16:58;;;;;;;;;;;18.60;58.50;;;;;;5016986;28;1919;-72
2022/04/20 01:19:31;;;;;;;;;;;18.70;58.60;;;;;;5035102;28;945;-71
2022/04/20 01:21:56;;;;;;;;;;;18.60;58.50;;;;;;5017200;28;1038;-72
2022/04/20 01:24:21;;;;;;;;;;;18.60;58.60;;;;;;5035047;28;1199;-72
2022/04/20 01:26:47;;;;;;;;;;;18.60;58.60;;;;;;5034661;28;1056;-72
2022/04/20 01:29:12;;;;;;;;;;;18.60;58.60;;;;;;5034840;28;1053;-72
2022/04/20 01:31:38;;;;;;;;;;;18.60;58.60;;;;;;5017377;28;649;-72
2022/04/20 01:34:03;;;;;;;;;;;18.60;58.60;;;;;;5034706;28;1196;-71
2022/04/20 01:36:28;;;;;;;;;;;18.60;58.60;;;;;;5034217;28;1946;-71
2022/04/20 01:38:54;;;;;;;;;;;18.60;58.60;;;;;;5034808;28;876;-72
2022/04/20 01:41:19;;;;;;;;;;;18.60;58.60;;;;;;5034524;28;826;-71
2022/04/20 01:43:45;;;;;;;;;;;18.60;58.70;;;;;;5034489;28;1205;-72
2022/04/20 01:46:11;;;;;;;;;;;18.60;58.60;;;;;;5034203;28;1125;-72
2022/04/20 01:48:36;;;;;;;;;;;18.60;58.70;;;;;;5034503;28;1057;-72
2022/04/20 01:53:45;;;;;;;;;;;18.60;58.70;;;;;;5034446;28;1209;-72
2022/04/20 01:56:11;;;;;;;;;;;18.60;58.70;;;;;;5033794;28;1898;-71
2022/04/20 01:58:36;;;;;;;;;;;18.60;58.70;;;;;;5034134;28;815;-71
2022/04/20 02:02:34;;;;;;;;;;;18.60;58.70;;;;;;5034248;28;858;-72
2022/04/20 02:03:47;;;;;;;;;;;18.60;58.70;;;;;;5032848;28;1271;-72
2022/04/20 02:06:14;;;;;;;;;;;18.60;58.70;;;;;;5035019;22;3754;-69
2022/04/20 02:08:39;;;;;;;;;;;18.60;58.80;;;;;;5003232;28;815;-69
2022/04/20 02:11:05;;;;;;;;;;;18.60;58.80;;;;;;4993604;28;1046;-68
2022/04/20 02:13:30;;;;;;;;;;;18.60;58.80;;;;;;4994842;28;1045;-69
2022/04/20 02:15:56;;;;;;;;;;;18.60;58.80;;;;;;5004419;28;1964;-69
2022/04/20 02:18:21;;;;;;;;;;;18.60;58.80;;;;;;5013764;28;1131;-68
2022/04/20 02:20:47;;;;;;;;;;;18.60;58.80;;;;;;4996560;28;710;-69
2022/04/20 02:23:12;;;;;;;;;;;18.60;58.80;;;;;;4996425;28;941;-69
2022/04/20 02:25:37;;;;;;;;;;;18.60;58.80;;;;;;5013891;28;1193;-69
2022/04/20 02:28:03;;;;;;;;;;;18.60;58.80;;;;;;5014272;28;898;-69
2022/04/20 02:30:28;;;;;;;;;;;18.60;59.50;;;;;;4996478;28;1062;-69
2022/04/20 02:32:54;;;;;;;;;;;18.60;58.90;;;;;;5013956;28;859;-69
2022/04/20 02:35:19;;;;;;;;;;;18.50;58.80;;;;;;4996322;28;1895;-69
2022/04/20 02:37:45;;;;;;;;;;;18.60;58.90;;;;;;5006738;28;1124;-69
2022/04/20 02:40:10;;;;;;;;;;;18.60;58.90;;;;;;5013891;28;861;-69
2022/04/20 02:42:36;;;;;;;;;;;18.60;58.90;;;;;;5012502;28;726;-69
2022/04/20 02:45:01;;;;;;;;;;;18.60;58.90;;;;;;5012511;28;1216;-69
2022/04/20 02:47:27;;;;;;;;;;;18.60;58.90;;;;;;5013454;28;894;-69
2022/04/20 02:49:52;;;;;;;;;;;18.50;58.90;;;;;;5013763;28;780;-69
2022/04/20 02:52:17;;;;;;;;;;;18.50;58.90;;;;;;5013504;28;772;-69
2022/04/20 02:54:43;;;;;;;;;;;18.50;58.90;;;;;;5012318;28;1251;-69
2022/04/20 02:57:08;;;;;;;;;;;18.50;58.90;;;;;;5013208;28;1894;-68
2022/04/20 02:59:34;;;;;;;;;;;18.50;59.00;;;;;;5012497;28;796;-69
2022/04/20 03:01:59;;;;;;;;;;;18.50;58.90;;;;;;5013793;28;819;-69
2022/04/20 03:04:25;;;;;;;;;;;18.50;59.00;;;;;;5013300;28;1137;-69
2022/04/20 03:06:50;;;;;;;;;;;18.50;59.00;;;;;;5013217;28;1077;-69
2022/04/20 03:09:16;;;;;;;;;;;18.50;59.50;;;;;;5013805;28;639;-69
2022/04/20 03:11:42;;;;;;;;;;;18.50;59.00;;;;;;5013377;28;835;-68
2022/04/20 03:14:08;;;;;;;;;;;18.50;59.00;;;;;;5013394;28;1289;-69
2022/04/20 03:16:33;;;;;;;;;;;18.50;59.00;;;;;;5012916;28;1959;-69
2022/04/20 03:18:59;;;;;;;;;;;18.50;59.00;;;;;;5013243;28;1226;-69
2022/04/20 03:21:24;;;;;;;;;;;18.50;59.00;;;;;;5013150;28;895;-69
2022/04/20 03:23:49;;;;;;;;;;;18.50;59.00;;;;;;5013265;28;899;-69
2022/04/20 03:26:15;;;;;;;;;;;18.50;59.00;;;;;;5011717;28;1194;-69
2022/04/20 03:28:41;;;;;;;;;;;18.50;59.00;;;;;;5013288;28;919;-69
2022/04/20 03:31:06;;;;;;;;;;;18.50;59.00;;;;;;5016370;28;804;-69
2022/04/20 03:33:32;;;;;;;;;;;18.50;59.10;;;;;;5015998;28;800;-69
2022/04/20 03:35:57;;;;;;;;;;;18.50;59.10;;;;;;5015788;28;1899;-69
2022/04/20 03:38:23;;;;;;;;;;;18.50;59.10;;;;;;5016963;28;1257;-69
2022/04/20 03:40:48;;;;;;;;;;;18.50;59.10;;;;;;5017152;28;951;-69
2022/04/20 03:43:14;;;;;;;;;;;18.50;59.10;;;;;;4999606;28;935;-69
2022/04/20 03:45:39;;;;;;;;;;;18.50;59.10;;;;;;5016733;28;1706;-69
2022/04/20 03:48:05;;;;;;;;;;;18.50;59.10;;;;;;4999286;28;873;-69
2022/04/20 03:50:30;;;;;;;;;;;18.50;59.10;;;;;;4999326;28;879;-68
2022/04/20 03:52:56;;;;;;;;;;;18.50;59.10;;;;;;4999482;28;1087;-69
2022/04/20 03:55:21;;;;;;;;;;;18.50;59.10;;;;;;5016693;28;1903;-69
2022/04/20 03:57:47;;;;;;;;;;;18.50;59.10;;;;;;5016598;28;946;-69
2022/04/20 04:00:13;;;;;;;;;;;18.50;59.10;;;;;;5016816;28;902;-69
2022/04/20 04:02:38;;;;;;;;;;;18.50;59.10;;;;;;4999072;28;1383;-69
2022/04/20 04:05:04;;;;;;;;;;;18.50;59.10;;;;;;5016544;28;1271;-69
2022/04/20 04:07:29;;;;;;;;;;;18.50;59.10;;;;;;4998872;28;994;-68
2022/04/20 04:09:55;;;;;;;;;;;18.50;59.20;;;;;;5016724;28;946;-69
2022/04/20 04:12:23;;;;;;;;;;;18.50;59.20;;;;;;5016772;28;804;-69
2022/04/20 04:14:49;;;;;;;;;;;18.50;59.20;;;;;;4998815;28;1244;-69
2022/04/20 04:17:14;;;;;;;;;;;18.50;59.20;;;;;;4998371;28;1902;-69
2022/04/20 04:19:40;;;;;;;;;;;18.50;59.20;;;;;;5016389;28;927;-69
2022/04/20 04:22:05;;;;;;;;;;;18.40;59.20;;;;;;5016282;28;839;-69
2022/04/20 04:24:37;;;;;;;;;;;18.40;59.20;;;;;;5016346;28;1282;-69
2022/04/20 04:27:05;;;;;;;;;;;18.50;59.20;;;;;;4999548;28;919;-69
2022/04/20 04:29:31;;;;;;;;;;;18.50;59.20;;;;;;4999098;28;1001;-69
2022/04/20 04:31:57;;;;;;;;;;;18.50;59.20;;;;;;4998705;28;843;-69
2022/04/20 04:34:22;;;;;;;;;;;18.50;59.20;;;;;;4998462;28;1272;-69
2022/04/20 04:36:48;;;;;;;;;;;18.50;59.20;;;;;;5015775;28;1932;-69
2022/04/20 04:39:14;;;;;;;;;;;18.50;59.30;;;;;;5014909;28;850;-69
2022/04/20 04:41:42;;;;;;;;;;;18.50;59.20;;;;;;5015669;28;847;-69
2022/04/20 04:44:07;;;;;;;;;;;18.50;59.20;;;;;;5014830;28;1279;-69
2022/04/20 04:49:17;;;;;;;;;;;18.50;59.10;;;;;;5015957;28;678;-69
2022/04/20 04:51:42;;;;;;;;;;;18.60;59.10;;;;;;5015917;28;990;-68
2022/04/20 04:54:08;;;;;;;;;;;18.60;58.90;;;;;;5016051;28;1224;-69
2022/04/20 04:56:33;;;;;;;;;;;18.60;58.80;;;;;;5015438;28;1898;-69
2022/04/20 04:58:59;;;;;;;;;;;18.60;58.80;;;;;;5015753;28;780;-69
2022/04/20 05:01:24;;;;;;;;;;;18.70;58.80;;;;;;5015464;28;1176;-68
2022/04/20 05:03:50;;;;;;;;;;;18.70;58.70;;;;;;5014796;28;749;-69
2022/04/20 05:06:15;;;;;;;;;;;18.70;58.60;;;;;;5015271;28;1343;-69
2022/04/20 05:08:40;;;;;;;;;;;18.70;58.50;;;;;;5014261;28;895;-69
2022/04/20 05:11:07;;;;;;;;;;;18.70;58.50;;;;;;5015572;28;879;-69
2022/04/20 05:13:32;;;;;;;;;;;18.80;58.50;;;;;;5015338;28;942;-68
2022/04/20 05:15:58;;;;;;;;;;;18.80;58.40;;;;;;5014957;28;1910;-69
2022/04/20 05:18:23;;;;;;;;;;;18.80;58.40;;;;;;4992660;28;1241;-69
2022/04/20 05:20:49;;;;;;;;;;;18.80;58.30;;;;;;5015198;28;851;-69
2022/04/20 05:23:14;;;;;;;;;;;18.80;58.30;;;;;;5015284;28;883;-69
2022/04/20 05:25:39;;;;;;;;;;;18.80;58.20;;;;;;4997353;28;1188;-69
2022/04/20 05:28:05;;;;;;;;;;;18.90;58.20;;;;;;5015086;28;828;-68
2022/04/20 05:30:31;;;;;;;;;;;18.90;58.20;;;;;;5013819;28;792;-69
2022/04/20 05:32:56;;;;;;;;;;;18.90;58.20;;;;;;5014857;28;1050;-69
2022/04/20 05:35:22;;;;;;;;;;;18.90;58.20;;;;;;5014831;28;1895;-69
2022/04/20 05:43:16;;;;;;;;;;;18.90;58.00;;;;;;5014847;28;646;-69
2022/04/20 05:45:41;;;;;;;;;;;18.90;57.40;;;;;;5014436;28;1187;-69
2022/04/20 05:48:07;;;;;;;;;;;18.90;56.30;;;;;;5014739;28;856;-69
2022/04/20 05:50:33;;;;;;;;;;;18.90;56.20;;;;;;5015123;28;842;-69
2022/04/20 05:52:59;;;;;;;;;;;18.90;56.20;;;;;;5012278;28;2091;-68
2022/04/20 05:55:24;;;;;;;;;;;18.90;56.20;;;;;;5009774;28;1961;-69
2022/04/20 05:57:49;;;;;;;;;;;18.90;56.20;;;;;;5013933;28;1059;-69
2022/04/20 06:00:15;;;;;;;;;;;18.90;56.20;;;;;;4996888;28;1096;-69
2022/04/20 06:02:41;;;;;;;;;;;19.00;56.30;;;;;;4997050;28;856;-69
2022/04/20 06:05:07;;;;;;;;;;;18.90;56.40;;;;;;4996775;28;1310;-69
2022/04/20 06:07:33;;;;;;;;;;;18.90;56.40;;;;;;5014046;28;898;-69
2022/04/20 06:09:58;;;;;;;;;;;19.00;56.50;;;;;;5011775;28;1401;-70
2022/04/20 06:12:24;;;;;;;;;;;19.00;56.60;;;;;;5031954;28;1199;-69
2022/04/20 06:14:49;;;;;;;;;;;19.00;56.60;;;;;;5014160;28;1227;-69
2022/04/20 06:17:15;;;;;;;;;;;19.00;56.70;;;;;;4995445;28;1957;-68
2022/04/20 06:19:40;;;;;;;;;;;19.00;56.70;;;;;;5013324;28;871;-68
2022/04/20 06:22:06;;;;;;;;;;;19.00;56.80;;;;;;5012851;28;865;-68
2022/04/20 06:24:31;;;;;;;;;;;19.00;56.80;;;;;;5012900;28;1285;-68
2022/04/20 06:26:57;;;;;;;;;;;19.00;56.80;;;;;;5012779;28;867;-67
2022/04/20 06:29:22;;;;;;;;;;;19.00;56.90;;;;;;5013195;28;788;-67
2022/04/20 06:31:47;;;;;;;;;;;19.00;56.90;;;;;;4995665;28;852;-67
2022/04/20 06:34:13;;;;;;;;;;;19.00;56.90;;;;;;5012753;28;1283;-72
2022/04/20 06:36:38;;;;;;;;;;;19.00;56.90;;;;;;5012656;28;1890;-73
2022/04/20 06:39:04;;;;;;;;;;;19.00;56.90;;;;;;5012655;28;697;-72
2022/04/20 06:41:29;;;;;;;;;;;19.00;56.90;;;;;;5012573;28;659;-70
2022/04/20 06:43:56;;;;;;;;;;;19.00;56.90;;;;;;5012773;28;835;-71
2022/04/20 06:46:21;;;;;;;;;;;19.00;57.00;;;;;;5012458;28;1200;-72
2022/04/20 06:48:46;;;;;;;;;;;19.00;57.00;;;;;;5012478;28;843;-73
2022/04/20 06:51:12;;;;;;;;;;;19.00;57.00;;;;;;5012852;28;891;-70
2022/04/20 06:58:31;;;;;;;;;;;19.00;57.00;;;;;;5020588;28;1906;-70
2022/04/20 06:59:13;;;;;;;;;;;19.00;57.10;;;;;;5024003;28;1241;-70
2022/04/20 07:01:38;;;;;;;;;;;19.10;57.10;;;;;;4982530;28;1748;-70
2022/04/20 07:04:05;;;;;;;;;;;19.10;57.10;;;;;;5010402;28;2249;-70
2022/04/20 07:06:31;;;;;;;;;;;19.10;57.00;;;;;;5019691;28;1588;-70
2022/04/20 07:08:56;;;;;;;;;;;19.20;57.40;;;;;;5018922;28;1849;-69
2022/04/20 07:11:21;;;;;;;;;;;19.30;57.70;;;;;;5003248;28;1365;-70
2022/04/20 07:13:47;;;;;;;;;;;19.40;57.80;;;;;;5021341;28;1271;-70
2022/04/20 07:16:13;;;;;;;;;;;19.50;57.50;;;;;;5022821;28;1914;-69
2022/04/20 07:18:38;;;;;;;;;;;19.60;57.50;;;;;;5020976;28;1258;-70
2022/04/20 07:21:04;;;;;;;;;;;19.80;57.50;;;;;;5014528;28;1920;-70
2022/04/20 07:23:29;;;;;;;;;;;19.90;57.50;;;;;;5013240;28;1191;-70
2022/04/20 07:25:54;;;;;;;;;;;19.90;57.30;;;;;;5013149;28;1660;-72
2022/04/20 07:28:20;;;;;;;;;;;20.00;57.10;;;;;;4995723;28;1496;-71
2022/04/20 07:30:45;;;;;;;;;;;20.10;57.00;;;;;;4995775;28;852;-70
2022/04/20 07:33:13;;;;;;;;;;;20.10;56.90;;;;;;5012647;28;1887;-70
2022/04/20 07:35:38;;;;;;;;;;;20.20;56.80;;;;;;5009480;28;2001;-70
2022/04/20 07:38:04;;;;;;;;;;;20.20;56.80;;;;;;5013252;28;1419;-70
2022/04/20 07:40:31;;;;;;;;;;;20.20;56.70;;;;;;5013163;28;1469;-70
2022/04/20 07:42:56;;;;;;;;;;;20.30;56.70;;;;;;4995866;28;1525;-70
2022/04/20 07:45:25;;;;;;;;;;;20.30;56.70;;;;;;5013138;28;1199;-70
2022/04/20 07:47:51;;;;;;;;;;;20.30;56.60;;;;;;4995364;28;1718;-70
2022/04/20 07:50:21;;;;;;;;;;;20.30;56.70;;;;;;5012987;28;1113;-69
2022/04/20 07:52:48;;;;;;;;;;;20.30;56.70;;;;;;5013046;28;1493;-70
2022/04/20 07:55:18;;;;;;;;;;;20.40;57.10;;;;;;4995835;28;1208;-70
2022/04/20 07:57:43;;;;;;;;;;;20.40;57.00;;;;;;5012867;28;1950;-70
2022/04/20 08:00:09;;;;;;;;;;;20.40;57.00;;;;;;5013342;28;827;-70
2022/04/20 08:02:34;;;;;;;;;;;20.40;57.20;;;;;;4995335;28;1053;-70
2022/04/20 08:05:00;;;;;;;;;;;20.40;57.10;;;;;;5013211;28;1290;-70
2022/04/20 08:07:26;;;;;;;;;;;20.40;57.20;;;;;;5009330;28;2298;-69
2022/04/20 08:09:52;;;;;;;;;;;20.40;57.20;;;;;;5012908;28;1050;-70
2022/04/20 08:12:17;;;;;;;;;;;20.40;57.20;;;;;;4994963;28;1297;-70
2022/04/20 08:14:42;;;;;;;;;;;20.40;57.30;;;;;;4995056;28;1258;-70
2022/04/20 08:17:08;;;;;;;;;;;20.40;57.40;;;;;;4998391;28;1910;-70
2022/04/20 08:19:33;;;;;;;;;;;20.40;57.40;;;;;;5016083;28;1129;-70
2022/04/20 08:21:59;;;;;;;;;;;20.40;57.50;;;;;;5016420;28;1112;-70
2022/04/20 08:24:24;;;;;;;;;;;20.40;57.60;;;;;;5016033;28;1359;-71
2022/04/20 08:26:52;;;;;;;;;;;20.40;57.60;;;;;;5016038;28;891;-71
2022/04/20 08:29:18;;;;;;;;;;;20.40;57.80;;;;;;4999370;28;729;-71
2022/04/20 08:31:43;;;;;;;;;;;20.40;57.80;;;;;;4982285;28;923;-70
2022/04/20 08:34:09;;;;;;;;;;;20.40;57.80;;;;;;5016070;28;1271;-71
2022/04/20 08:36:34;;;;;;;;;;;20.40;58.00;;;;;;5015756;28;1953;-70
2022/04/20 08:39:00;;;;;;;;;;;20.30;57.90;;;;;;5016097;28;941;-70
2022/04/20 08:41:25;;;;;;;;;;;20.30;58.00;;;;;;5016171;28;895;-70
2022/04/20 08:43:51;;;;;;;;;;;20.30;58.00;;;;;;5016183;28;839;-70
2022/04/20 08:46:16;;;;;;;;;;;20.30;58.10;;;;;;4998057;28;1193;-70
2022/04/20 08:48:41;;;;;;;;;;;20.30;58.10;;;;;;5015674;28;1022;-70
2022/04/20 08:51:07;;;;;;;;;;;20.30;58.20;;;;;;4998346;28;1096;-70
2022/04/20 08:53:32;;;;;;;;;;;20.30;58.20;;;;;;5015566;28;807;-69
2022/04/20 08:58:49;;;;;;;;;;;20.30;58.20;;;;;;5015682;28;603;-70
2022/04/20 09:01:15;;;;;;;;;;;20.30;58.20;;;;;;4997901;28;891;-70
2022/04/20 09:03:40;;;;;;;;;;;20.30;58.30;;;;;;4998181;28;809;-70
2022/04/20 09:06:06;;;;;;;;;;;20.30;58.30;;;;;;5015265;28;1281;-69
2022/04/20 09:08:32;;;;;;;;;;;20.30;58.40;;;;;;5015699;28;824;-69
2022/04/20 09:10:57;;;;;;;;;;;20.20;58.30;;;;;;5015283;28;874;-69
2022/04/20 09:13:30;;;;;;;;;;;20.20;58.40;;;;;;5015347;28;919;-70
2022/04/20 09:15:56;;;;;;;;;;;20.20;58.50;;;;;;5014822;28;1914;-70
2022/04/20 09:18:23;;;;;;;;;;;20.20;58.50;;;;;;4997729;28;1200;-70
2022/04/20 09:20:48;;;;;;;;;;;20.20;58.60;;;;;;5015217;28;885;-67
2022/04/20 09:23:14;;;;;;;;;;;20.20;58.60;;;;;;5015187;28;1033;-68
2022/04/20 09:25:41;;;;;;;;;;;20.20;58.70;;;;;;5014803;28;1225;-67
2022/04/20 09:28:06;;;;;;;;;;;20.20;58.70;;;;;;5014393;28;737;-68
2022/04/20 09:30:36;;;;;;;;;;;20.20;58.70;;;;;;4997660;28;935;-68
2022/04/20 09:33:07;;;;;;;;;;;20.20;58.80;;;;;;4997418;28;816;-67
2022/04/20 09:35:42;;;;;;;;;;;20.20;58.90;;;;;;4997186;28;1960;-67
2022/04/20 09:38:08;;;;;;;;;;;20.20;58.90;;;;;;5014881;28;1167;-69
2022/04/20 09:40:34;;;;;;;;;;;20.10;58.90;;;;;;5013442;28;839;-69
2022/04/20 09:43:09;;;;;;;;;;;20.20;59.00;;;;;;5013620;28;792;-69
2022/04/20 09:45:35;;;;;;;;;;;20.20;59.10;;;;;;4986553;28;1586;-69
2022/04/20 09:51:04;;;;;;;;;;;20.10;59.30;;;;;;5033449;28;620;-72
2022/04/20 09:53:33;;;;;;;;;;;20.10;59.30;;;;;;5033734;28;1041;-70
2022/04/20 09:56:13;;;;;;;;;;;20.10;59.30;;;;;;5033188;28;1966;-71
2022/04/20 09:58:39;;;;;;;;;;;20.10;59.30;;;;;;5015720;28;1355;-73
2022/04/20 10:01:06;;;;;;;;;;;20.10;59.40;;;;;;5018617;28;1449;-72
2022/04/20 10:03:31;;;;;;;;;;;20.10;59.40;;;;;;5013182;28;1165;-71
2022/04/20 10:05:58;;;;;;;;;;;20.00;59.40;;;;;;5012514;28;1201;-70
2022/04/20 10:08:23;;;;;;;;;;;20.10;59.40;;;;;;4979111;28;1146;-69
2022/04/20 10:10:49;;;;;;;;;;;20.00;59.50;;;;;;5012883;28;1002;-70
2022/04/20 10:13:15;;;;;;;;;;;20.00;59.50;;;;;;4995413;28;808;-70
2022/04/20 10:18:24;;;;;;;;;;;20.00;59.70;;;;;;4997738;28;1104;-68
2022/04/20 10:20:54;;;;;;;;;;;20.00;59.80;;;;;;5011251;28;1025;-70
2022/04/20 10:23:19;;;;;;;;;;;20.00;59.90;;;;;;5013029;28;868;-70
2022/04/20 10:25:45;;;;;;;;;;;19.90;59.90;;;;;;5011817;28;1201;-70
2022/04/20 10:28:14;;;;;;;;;;;19.90;59.90;;;;;;5013929;28;882;-70
2022/04/20 10:30:59;;;;;;;;;;;19.90;60.10;;;;;;5012656;28;935;-70
2022/04/20 10:33:24;;;;;;;;;;;19.90;60.20;;;;;;5013908;28;1054;-71
2022/04/20 10:35:57;;;;;;;;;;;19.90;60.20;;;;;;5013612;28;1903;-71
2022/04/20 10:38:23;;;;;;;;;;;19.90;60.30;;;;;;5013380;28;1159;-70
2022/04/20 10:40:57;;;;;;;;;;;19.90;60.30;;;;;;5013784;28;852;-71
2022/04/20 10:43:26;;;;;;;;;;;19.90;60.40;;;;;;5013793;28;820;-70
2022/04/20 10:46:05;;;;;;;;;;;19.80;60.50;;;;;;5012268;28;1237;-70
2022/04/20 10:48:51;;;;;;;;;;;19.80;60.40;;;;;;4995185;28;1323;-69
2022/04/20 10:51:17;;;;;;;;;;;19.80;60.50;;;;;;5028781;28;1262;-70
2022/04/20 10:53:43;;;;;;;;;;;19.80;60.50;;;;;;5015612;28;852;-70
2022/04/20 10:56:09;;;;;;;;;;;19.80;60.60;;;;;;5015261;28;1895;-70
2022/04/20 10:58:35;;;;;;;;;;;19.80;60.60;;;;;;5015406;28;1058;-70
2022/04/20 11:01:12;;;;;;;;;;;19.80;60.60;;;;;;5032792;28;819;-71
2022/04/20 11:03:57;;;;;;;;;;;19.80;60.70;;;;;;5032262;28;935;-71
2022/04/20 11:06:25;;;;;;;;;;;19.80;61.40;;;;;;5032772;28;1219;-70
2022/04/20 11:08:51;;;;;;;;;;;19.80;60.60;;;;;;5015482;28;800;-71
2022/04/20 11:19:48;;;;;;;;;;;19.80;61.00;;;;;;5005440;28;954;-69
2022/04/20 11:22:14;;;;;;;;;;;19.80;61.20;;;;;;4995697;28;1207;-70
2022/04/20 11:24:39;;;;;;;;;;;19.80;61.20;;;;;;4995525;28;1193;-70
2022/04/20 11:27:06;;;;;;;;;;;19.70;61.40;;;;;;4995343;28;927;-71
2022/04/20 11:29:32;;;;;;;;;;;19.70;61.50;;;;;;5013190;28;851;-70
2022/04/20 11:32:02;;;;;;;;;;;19.70;61.60;;;;;;5013558;28;890;-70
2022/04/20 11:34:30;;;;;;;;;;;19.70;61.70;;;;;;5007896;28;2363;-70
2022/04/20 11:36:57;;;;;;;;;;;19.70;61.90;;;;;;4996966;28;1907;-70
2022/04/20 11:39:23;;;;;;;;;;;19.70;61.70;;;;;;4994705;28;1568;-69
2022/04/20 11:41:49;;;;;;;;;;;19.70;61.80;;;;;;5013055;28;890;-70
2022/04/20 11:44:28;;;;;;;;;;;19.70;61.70;;;;;;5012791;28;1279;-69
2022/04/20 11:46:57;;;;;;;;;;;19.70;61.90;;;;;;4995315;28;788;-70
2022/04/20 11:49:28;;;;;;;;;;;19.70;61.80;;;;;;5012964;28;907;-68
2022/04/20 11:52:06;;;;;;;;;;;19.70;61.60;;;;;;4998007;28;1092;-70
2022/04/20 11:54:32;;;;;;;;;;;19.70;61.40;;;;;;5000753;28;1271;-70
2022/04/20 11:56:58;;;;;;;;;;;19.80;61.40;;;;;;5016458;28;1951;-69
2022/04/20 11:59:27;;;;;;;;;;;19.80;61.30;;;;;;5016801;28;997;-69
2022/04/20 12:01:53;;;;;;;;;;;19.80;61.20;;;;;;5009893;28;1957;-70
2022/04/20 12:04:19;;;;;;;;;;;19.80;61.20;;;;;;4994610;28;2252;-70
2022/04/20 12:06:54;;;;;;;;;;;19.80;60.50;;;;;;4998424;28;1108;-69
2022/04/20 12:09:24;;;;;;;;;;;19.80;58.30;;;;;;5016200;28;1210;-70
2022/04/20 12:11:52;;;;;;;;;;;19.80;57.20;;;;;;4998934;28;1171;-69
2022/04/20 12:14:19;;;;;;;;;;;19.70;56.10;;;;;;5016369;28;1209;-70
2022/04/20 12:16:45;;;;;;;;;;;19.60;55.40;;;;;;5016106;28;1965;-69
2022/04/20 12:19:10;;;;;;;;;;;19.60;54.90;;;;;;4990899;28;1182;-69
2022/04/20 12:21:42;;;;;;;;;;;19.60;54.60;;;;;;4997916;28;903;-69
2022/04/20 12:24:08;;;;;;;;;;;19.50;54.30;;;;;;5011774;28;1216;-70
2022/04/20 12:26:33;;;;;;;;;;;19.50;54.10;;;;;;5015939;28;1203;-69
2022/04/20 12:28:59;;;;;;;;;;;19.50;53.90;;;;;;5002539;28;1104;-71
2022/04/20 12:31:25;;;;;;;;;;;19.40;53.80;;;;;;5016024;28;999;-69
2022/04/20 12:34:06;;;;;;;;;;;19.50;53.70;;;;;;5015058;28;1222;-69
2022/04/20 12:36:48;;;;;;;;;;;19.40;53.50;;;;;;5015342;28;1969;-69
2022/04/20 12:39:26;;;;;;;;;;;19.40;53.30;;;;;;5016136;28;820;-69
2022/04/20 12:41:55;;;;;;;;;;;19.40;53.20;;;;;;5015704;28;680;-70
2022/04/20 12:44:35;;;;;;;;;;;19.30;53.10;;;;;;5015800;28;1241;-70
2022/04/20 12:47:21;;;;;;;;;;;19.30;53.10;;;;;;5015773;28;870;-70
2022/04/20 12:49:53;;;;;;;;;;;19.30;53.10;;;;;;5002177;28;1102;-70
2022/04/20 12:52:19;;;;;;;;;;;19.30;53.00;;;;;;4998862;28;745;-70
2022/04/20 12:54:54;;;;;;;;;;;19.30;52.80;;;;;;5000337;28;1692;-70
2022/04/20 13:02:58;;;;;;;;;;;19.20;52.20;;;;;;5009839;28;1847;-70
2022/04/20 13:05:24;;;;;;;;;;;19.30;52.20;;;;;;4995233;28;1309;-70
2022/04/20 13:07:49;;;;;;;;;;;19.20;52.00;;;;;;5015185;28;1186;-70
2022/04/20 13:10:15;;;;;;;;;;;19.20;52.00;;;;;;5017624;28;1608;-69
2022/04/20 13:12:47;;;;;;;;;;;19.20;51.90;;;;;;5023822;28;1302;-69
2022/04/20 13:15:12;;;;;;;;;;;19.20;51.90;;;;;;5024742;28;1406;-70
2022/04/20 13:17:38;;;;;;;;;;;19.20;51.80;;;;;;5022157;28;1906;-68
2022/04/20 13:20:07;;;;;;;;;;;19.20;51.70;;;;;;5023098;28;1221;-69
2022/04/20 13:22:32;;;;;;;;;;;19.20;51.70;;;;;;5023565;28;1331;-69
2022/04/20 13:27:54;;;;;;;;;;;19.20;51.40;;;;;;5022021;28;1253;-71
2022/04/20 13:30:20;;;;;;;;;;;19.20;51.10;;;;;;5020965;28;1207;-70
2022/04/20 13:32:46;;;;;;;;;;;19.20;51.10;;;;;;5007622;28;1299;-67
2022/04/20 13:35:11;;;;;;;;;;;19.10;50.90;;;;;;5028838;28;1352;-68
2022/04/20 13:37:36;;;;;;;;;;;19.10;50.80;;;;;;5023659;28;1894;-68
2022/04/20 13:40:02;;;;;;;;;;;19.10;50.60;;;;;;5025332;28;1359;-70
2022/04/20 13:42:27;;;;;;;;;;;19.10;51.20;;;;;;5023730;28;1213;-70
2022/04/20 13:44:53;;;;;;;;;;;19.10;50.50;;;;;;5024231;28;1363;-70
2022/04/20 13:47:19;;;;;;;;;;;19.10;50.60;;;;;;5024975;28;1303;-69
2022/04/20 13:49:44;;;;;;;;;;;19.10;50.40;;;;;;5022489;28;1409;-70
2022/04/20 13:52:10;;;;;;;;;;;19.10;50.20;;;;;;5023834;28;1216;-68
2022/04/20 13:54:35;;;;;;;;;;;19.10;50.20;;;;;;5020905;28;1353;-69
2022/04/20 13:57:01;;;;;;;;;;;19.10;50.20;;;;;;4996464;28;1914;-70
2022/04/20 13:59:26;;;;;;;;;;;19.10;50.10;;;;;;5011079;28;2139;-69
2022/04/20 14:01:51;;;;;;;;;;;19.10;50.00;;;;;;5013602;28;1563;-69
2022/04/20 14:04:17;;;;;;;;;;;19.10;49.90;;;;;;4996499;28;1356;-70
2022/04/20 14:06:43;;;;;;;;;;;19.10;49.90;;;;;;4996053;28;848;-70
2022/04/20 14:09:08;;;;;;;;;;;19.10;49.80;;;;;;5012286;28;934;-70
2022/04/20 14:11:34;;;;;;;;;;;19.10;49.90;;;;;;5011438;28;1090;-71
2022/04/20 14:14:01;;;;;;;;;;;19.00;49.80;;;;;;5013787;28;1135;-69
2022/04/20 14:16:27;;;;;;;;;;;19.00;49.80;;;;;;4996084;28;1963;-70
2022/04/20 14:18:53;;;;;;;;;;;19.00;49.80;;;;;;5011492;28;1167;-70
2022/04/20 14:21:18;;;;;;;;;;;19.00;49.80;;;;;;5014176;28;776;-70
2022/04/20 14:23:43;;;;;;;;;;;19.00;49.80;;;;;;5014126;28;767;-70
2022/04/20 14:34:21;;;;;;;;;;;19.00;49.70;;;;;;5013517;28;1240;-69
2022/04/20 14:36:47;;;;;;;;;;;19.00;49.80;;;;;;5013325;28;1902;-70
2022/04/20 14:39:12;;;;;;;;;;;19.00;49.80;;;;;;5013857;28;1050;-70
2022/04/20 14:41:38;;;;;;;;;;;19.00;49.70;;;;;;5013750;28;915;-69
2022/04/20 14:44:03;;;;;;;;;;;19.00;49.60;;;;;;5013729;28;1302;-70
2022/04/20 14:46:29;;;;;;;;;;;19.00;49.50;;;;;;5013387;28;1030;-70
2022/04/20 14:48:55;;;;;;;;;;;19.00;49.50;;;;;;5013528;28;1121;-70
2022/04/20 14:51:21;;;;;;;;;;;19.00;49.40;;;;;;5013833;28;845;-70
2022/04/20 14:53:48;;;;;;;;;;;19.00;49.30;;;;;;5013754;28;860;-70
2022/04/20 14:56:14;;;;;;;;;;;19.00;49.30;;;;;;5013149;28;1906;-70
2022/04/20 14:58:39;;;;;;;;;;;19.00;49.30;;;;;;4995866;28;987;-70
2022/04/20 15:01:05;;;;;;;;;;;19.00;49.30;;;;;;4995865;28;1018;-70
2022/04/20 15:03:30;;;;;;;;;;;19.00;49.30;;;;;;5013375;28;688;-69
2022/04/20 15:05:55;;;;;;;;;;;19.00;50.20;;;;;;4995515;28;1302;-69
2022/04/20 15:08:22;;;;;;;;;;;19.00;50.10;;;;;;5013455;28;920;-69
2022/04/20 15:10:48;;;;;;;;;;;19.00;50.10;;;;;;5013527;28;807;-69
2022/04/20 15:13:14;;;;;;;;;;;19.00;50.30;;;;;;5013432;28;1073;-70
2022/04/20 15:15:40;;;;;;;;;;;19.00;50.40;;;;;;5013135;28;1319;-69
2022/04/20 15:18:06;;;;;;;;;;;19.00;50.60;;;;;;5003940;28;1959;-69
2022/04/20 15:20:31;;;;;;;;;;;19.00;50.70;;;;;;5012220;28;844;-70